createdAt,value
2022-10-22T00:03:35.240Z,99783.28
2022-10-22T00:08:38.449Z,99777.08
2022-10-22T00:13:42.272Z,99777.44
2022-10-22T00:18:45.181Z,99777.21
2022-10-22T00:23:47.981Z,99772.55
2022-10-22T00:28:51.094Z,99769.44
2022-10-22T00:33:53.903Z,99764.61
2022-10-22T00:38:56.693Z,99757.80
2022-10-22T00:44:04.825Z,99753.17
2022-10-22T00:49:07.624Z,99743.70
2022-10-22T00:54:10.977Z,99747.88
2022-10-22T00:59:17.018Z,99746.98
2022-10-22T01:04:21.126Z,99747.02
2022-10-22T01:09:44.850Z,99744.68
2022-10-22T01:15:21.946Z,99738.24
2022-10-22T01:20:31.097Z,99731.25
2022-10-22T01:26:04.209Z,99731.57
2022-10-22T01:31:09.980Z,99723.77
2022-10-22T01:36:14.423Z,99722.74
2022-10-22T01:41:17.427Z,99722.77
2022-10-22T01:46:22.891Z,99719.33
2022-10-22T01:51:40.132Z,99716.27
2022-10-22T01:57:25.840Z,99711.30
2022-10-22T02:02:34.870Z,99699.89
2022-10-22T02:07:43.940Z,99702.16
2022-10-22T02:12:52.320Z,99703.86
2022-10-22T02:17:58.756Z,99700.48
2022-10-22T02:23:02.416Z,99695.48
2022-10-22T02:28:33.646Z,99693.44
2022-10-22T02:33:41.750Z,99692.23
2022-10-22T02:38:47.034Z,99687.54
2022-10-22T02:43:53.728Z,99686.59
2022-10-22T02:48:56.529Z,99683.73
2022-10-22T02:53:59.328Z,99686.24
2022-10-22T02:59:02.133Z,99689.04
2022-10-22T03:04:05.323Z,99693.67
2022-10-22T03:09:08.186Z,99691.64
2022-10-22T03:14:10.969Z,99692.73
2022-10-22T03:19:13.849Z,99696.88
2022-10-22T03:24:27.676Z,99695.59
2022-10-22T03:29:34.362Z,99690.75
2022-10-22T03:34:37.206Z,99687.64
2022-10-22T03:39:40.853Z,99686.23
2022-10-22T03:44:43.934Z,99679.87
2022-10-22T03:49:46.742Z,99685.50
2022-10-22T03:54:50.050Z,99681.13
2022-10-22T03:59:52.957Z,99679.79
2022-10-22T04:04:55.858Z,99683.98
2022-10-22T04:09:58.660Z,99683.82
2022-10-22T04:15:01.467Z,99678.47
2022-10-22T04:20:05.459Z,99674.49
2022-10-22T04:25:09.118Z,99673.55
2022-10-22T04:30:12.997Z,99676.36
2022-10-22T04:35:15.932Z,99672.41
2022-10-22T04:40:18.704Z,99675.51
2022-10-22T04:45:21.549Z,99683.75
2022-10-22T04:50:24.455Z,99686.51
2022-10-22T04:55:27.376Z,99690.38
2022-10-22T05:00:30.364Z,99676.68
2022-10-22T05:05:33.373Z,99659.95
2022-10-22T05:10:36.174Z,99657.10
2022-10-22T05:15:38.974Z,99664.18
2022-10-22T05:20:42.634Z,99658.64
2022-10-22T05:25:45.399Z,99660.79
2022-10-22T05:31:00.012Z,99646.23
2022-10-22T05:36:05.911Z,99644.48
2022-10-22T05:41:16.123Z,99656.83
2022-10-22T05:46:22.877Z,99654.47
2022-10-22T05:51:28.179Z,99653.42
2022-10-22T05:56:32.233Z,99664.80
2022-10-22T06:01:36.142Z,99664.25
2022-10-22T06:06:48.054Z,99662.98
2022-10-22T06:11:52.047Z,99675.59
2022-10-22T06:16:55.896Z,99679.44
2022-10-22T06:21:59.121Z,99691.41
2022-10-22T06:27:02.029Z,99700.25
2022-10-22T06:32:05.714Z,99701.36
2022-10-22T06:37:10.435Z,99704.36
2022-10-22T06:42:13.296Z,99713.96
2022-10-22T06:47:16.311Z,99715.20
2022-10-22T06:52:19.412Z,99713.48
2022-10-22T06:57:22.316Z,99714.66
2022-10-22T07:02:25.117Z,99713.66
2022-10-22T07:07:27.922Z,99711.73
2022-10-22T07:12:30.723Z,99707.27
2022-10-22T07:17:33.772Z,99713.21
2022-10-22T07:22:36.741Z,99720.49
2022-10-22T07:27:39.712Z,99718.52
2022-10-22T07:32:42.748Z,99719.71
2022-10-22T07:37:45.550Z,99713.64
2022-10-22T07:42:48.562Z,99715.52
2022-10-22T07:47:51.361Z,99715.98
2022-10-22T07:52:56.087Z,99712.47
2022-10-22T07:58:01.757Z,99715.45
2022-10-22T08:03:05.088Z,99723.50
2022-10-22T08:08:07.892Z,99715.77
2022-10-22T08:13:11.207Z,99710.31
2022-10-22T08:18:14.500Z,99722.10
2022-10-22T08:23:17.321Z,99729.67
2022-10-22T08:28:22.057Z,99735.04
2022-10-22T08:33:25.384Z,99744.80
2022-10-22T08:38:29.105Z,99750.73
2022-10-22T08:43:47.366Z,99752.98
2022-10-22T08:48:54.414Z,99752.31
2022-10-22T08:54:29.635Z,99751.98
2022-10-22T08:59:55.578Z,99756.91
2022-10-22T09:05:25.419Z,99750.36
2022-10-22T09:10:36.916Z,99742.09
2022-10-22T09:15:41.660Z,99739.03
2022-10-22T09:20:51.022Z,99742.19
2022-10-22T09:25:55.562Z,99740.73
2022-10-22T09:36:08.025Z,99761.48
2022-10-22T09:41:10.930Z,99761.14
2022-10-22T09:46:27.453Z,99756.09
2022-10-22T09:51:46.460Z,99748.41
2022-10-22T09:56:54.561Z,99737.63
2022-10-22T10:02:37.453Z,99735.03
2022-10-22T10:07:41.901Z,99729.27
2022-10-22T10:12:54.067Z,99731.04
2022-10-22T10:18:08.745Z,99726.19
2022-10-22T10:23:44.319Z,99725.38
2022-10-22T10:28:59.406Z,99723.29
2022-10-22T10:34:08.045Z,99719.70
2022-10-22T10:39:25.594Z,99723.16
2022-10-22T10:44:55.329Z,99729.34
2022-10-22T10:50:17.481Z,99729.44
2022-10-22T10:56:07.183Z,99728.96
2022-10-22T11:01:10.089Z,99731.10
2022-10-22T11:06:19.399Z,99732.77
2022-10-22T11:11:42.007Z,99730.66
2022-10-22T11:16:53.843Z,99729.52
2022-10-22T11:22:06.452Z,99726.10
2022-10-22T11:27:21.644Z,99720.71
2022-10-22T11:32:26.704Z,99707.83
2022-10-22T11:37:39.097Z,99703.60
2022-10-22T11:42:57.818Z,99704.75
2022-10-22T11:48:12.691Z,99707.32
2022-10-22T11:53:19.285Z,99705.95
2022-10-22T11:58:28.434Z,99712.18
2022-10-22T12:03:31.242Z,99719.94
2022-10-22T12:08:34.734Z,99722.76
2022-10-22T12:13:58.951Z,99718.29
2022-10-22T12:19:32.885Z,99712.59
2022-10-22T12:24:40.811Z,99706.39
2022-10-22T12:29:43.605Z,99701.47
2022-10-22T12:34:52.492Z,99692.52
2022-10-22T12:39:55.457Z,99689.19
2022-10-22T12:44:58.260Z,99689.05
2022-10-22T12:50:04.004Z,99687.42
2022-10-22T12:55:10.382Z,99689.78
2022-10-22T13:00:25.583Z,99685.40
2022-10-22T13:05:38.981Z,99687.76
2022-10-22T13:10:49.131Z,99691.75
2022-10-22T13:15:51.832Z,99693.09
2022-10-22T13:20:57.443Z,99694.52
2022-10-22T13:26:15.165Z,99691.23
2022-10-22T13:31:27.714Z,99694.46
2022-10-22T13:36:30.518Z,99695.52
2022-10-22T13:46:43.643Z,99689.60
2022-10-22T13:51:47.349Z,99689.09
2022-10-22T13:56:50.501Z,99689.33
2022-10-22T14:01:54.957Z,99682.31
2022-10-22T14:06:59.963Z,99677.21
2022-10-22T14:12:17.231Z,99680.25
2022-10-22T14:17:20.545Z,99680.47
2022-10-22T14:22:26.929Z,99682.70
2022-10-22T14:27:30.241Z,99681.85
2022-10-22T14:32:33.043Z,99684.06
2022-10-22T14:37:35.861Z,99688.05
2022-10-22T14:42:43.807Z,99694.55
2022-10-22T14:47:47.818Z,99693.49
2022-10-22T14:52:51.773Z,99691.25
2022-10-22T14:57:55.240Z,99696.56
2022-10-22T15:03:03.308Z,99702.98
2022-10-22T15:08:07.231Z,99700.23
2022-10-22T15:13:10.106Z,99703.27
2022-10-22T15:18:13.008Z,99706.81
2022-10-22T15:23:15.917Z,99708.92
2022-10-22T15:28:18.917Z,99708.98
2022-10-22T15:33:21.819Z,99712.63
2022-10-22T15:43:34.059Z,99715.15
2022-10-22T15:48:36.983Z,99727.63
2022-10-22T15:53:40.579Z,99728.48
2022-10-22T15:58:43.816Z,99729.28
2022-10-22T16:03:46.827Z,99736.52
2022-10-22T16:08:49.743Z,99740.85
2022-10-22T16:13:57.047Z,99741.36
2022-10-22T16:19:00.042Z,99746.43
2022-10-22T16:24:06.142Z,99748.66
2022-10-22T16:29:11.685Z,99753.40
2022-10-22T16:34:14.896Z,99750.73
2022-10-22T16:39:17.805Z,99751.14
2022-10-22T16:44:20.707Z,99755.39
2022-10-22T16:49:23.817Z,99759.30
2022-10-22T16:54:26.720Z,99760.48
2022-10-22T16:59:29.519Z,99758.64
2022-10-22T17:04:33.959Z,99762.08
2022-10-22T17:09:36.761Z,99762.88
2022-10-22T17:14:39.666Z,99771.39
2022-10-22T17:19:42.570Z,99773.63
2022-10-22T17:24:45.371Z,99781.71
2022-10-22T17:29:48.276Z,99781.15
2022-10-22T17:34:51.179Z,99783.29
2022-10-22T17:39:53.984Z,99788.64
2022-10-22T17:44:57.604Z,99785.24
2022-10-22T17:50:00.630Z,99790.05
2022-10-22T17:55:04.269Z,99787.00
2022-10-22T18:00:08.584Z,99785.49
2022-10-22T18:05:12.803Z,99790.08
2022-10-22T18:10:15.706Z,99794.02
2022-10-22T18:15:18.611Z,99797.52
2022-10-22T18:20:21.827Z,99795.73
2022-10-22T18:25:24.760Z,99795.14
2022-10-22T18:30:27.733Z,99798.98
2022-10-22T18:35:32.546Z,99795.64
2022-10-22T18:40:36.249Z,99797.10
2022-10-22T18:45:47.095Z,99796.90
2022-10-22T18:51:00.138Z,99805.02
2022-10-22T18:56:07.952Z,99804.97
2022-10-22T19:01:13.454Z,99808.70
2022-10-22T19:06:24.618Z,99812.21
2022-10-22T19:11:27.937Z,99818.17
2022-10-22T19:16:30.836Z,99819.99
2022-10-22T19:21:35.687Z,99820.63
2022-10-22T19:26:39.103Z,99826.14
2022-10-22T19:31:42.620Z,99830.95
2022-10-22T19:36:45.521Z,99835.26
2022-10-22T19:41:48.638Z,99838.71
2022-10-22T19:46:51.541Z,99846.51
2022-10-22T19:51:54.304Z,99849.89
2022-10-22T19:56:57.183Z,99850.63
2022-10-22T20:02:00.904Z,99859.03
2022-10-22T20:07:04.588Z,99868.02
2022-10-22T20:12:07.598Z,99873.29
2022-10-22T20:17:10.601Z,99883.64
2022-10-22T20:22:16.297Z,99885.77
2022-10-22T20:27:21.734Z,99886.87
2022-10-22T20:32:27.205Z,99891.21
2022-10-22T20:37:30.004Z,99897.10
2022-10-22T20:42:34.236Z,99901.53
2022-10-22T20:47:50.865Z,99900.86
2022-10-22T20:52:54.689Z,99900.29
2022-10-22T20:57:58.000Z,99910.28
2022-10-22T21:03:00.807Z,99914.05
2022-10-22T21:08:05.242Z,99915.69
2022-10-22T21:13:08.557Z,99919.75
2022-10-22T21:18:11.459Z,99925.70
2022-10-22T21:23:14.263Z,99928.39
2022-10-22T21:28:17.094Z,99932.66
2022-10-22T21:33:20.765Z,99932.23
2022-10-22T21:38:25.190Z,99937.05
2022-10-22T21:43:28.031Z,99934.17
2022-10-22T21:48:31.037Z,99934.71
2022-10-22T21:53:34.693Z,99942.74
2022-10-22T21:58:37.765Z,99945.20
2022-10-22T22:03:48.356Z,99950.63
2022-10-22T22:08:53.510Z,99949.73
2022-10-22T22:13:57.923Z,99952.11
2022-10-22T22:19:07.407Z,99955.85
2022-10-22T22:24:11.850Z,99960.73
2022-10-22T22:29:14.647Z,99962.70
2022-10-22T22:34:18.153Z,99967.80
2022-10-22T22:39:23.806Z,99968.13
2022-10-22T22:44:26.591Z,99971.23
2022-10-22T22:49:29.399Z,99974.73
2022-10-22T22:54:32.339Z,99977.70
2022-10-22T22:59:35.142Z,99978.47
2022-10-22T23:04:37.944Z,99982.84
2022-10-22T23:09:40.849Z,99983.55
2022-10-22T23:14:43.963Z,99986.13
2022-10-22T23:19:46.861Z,99992.58
2022-10-22T23:24:49.764Z,99993.36
2022-10-22T23:29:52.477Z,99998.30
2022-10-22T23:34:55.371Z,99996.80
2022-10-22T23:39:58.109Z,100001.06
2022-10-22T23:45:00.970Z,100003.38
2022-10-22T23:50:04.082Z,100012.27
2022-10-22T23:55:07.862Z,100021.27
